createdAt,value
2022-09-15T00:01:00.699Z,98547.22
2022-09-15T00:03:29.223Z,98545.34
2022-09-15T00:05:56.599Z,98547.44
2022-09-15T00:08:24.065Z,98545.09
2022-09-15T00:10:54.369Z,98537.22
2022-09-15T00:13:22.272Z,98539.94
2022-09-15T00:15:48.737Z,98549.50
2022-09-15T00:18:15.311Z,98550.31
2022-09-15T00:20:43.290Z,98540.97
2022-09-15T00:23:10.998Z,98555.94
2022-09-15T00:25:45.783Z,98554.53
2022-09-15T00:28:13.224Z,98557.81
2022-09-15T00:30:58.774Z,98556.13
2022-09-15T00:33:25.740Z,98552.19
2022-09-15T00:35:53.528Z,98550.31
2022-09-15T00:38:20.747Z,98557.47
2022-09-15T00:40:52.903Z,98561.16
2022-09-15T00:43:42.316Z,98559.88
2022-09-15T00:46:10.153Z,98558.78
2022-09-15T00:48:39.968Z,98563.59
2022-09-15T00:51:07.609Z,98568.13
2022-09-15T00:53:34.944Z,98565.66
2022-09-15T00:56:02.617Z,98559.00
2022-09-15T00:58:37.615Z,98573.66
2022-09-15T01:01:04.419Z,98585.31
2022-09-15T01:03:33.304Z,98588.03
2022-09-15T01:06:10.431Z,98588.50
2022-09-15T01:08:45.931Z,98585.81
2022-09-15T01:11:15.258Z,98576.66
2022-09-15T01:13:42.203Z,98578.75
2022-09-15T01:16:30.760Z,98583.38
2022-09-15T01:19:12.712Z,98589.84
2022-09-15T01:22:05.866Z,98587.97
2022-09-15T01:24:38.532Z,98581.50
2022-09-15T01:27:46.990Z,98588.59
2022-09-15T01:30:20.514Z,98590.44
2022-09-15T01:33:04.433Z,98599.00
2022-09-15T01:36:11.213Z,98596.91
2022-09-15T01:38:44.186Z,98603.75
2022-09-15T01:41:16.144Z,98599.63
2022-09-15T01:43:54.742Z,98592.53
2022-09-15T01:46:24.620Z,98582.72
2022-09-15T01:48:54.112Z,98585.88
2022-09-15T01:51:22.079Z,98587.50
2022-09-15T01:53:49.697Z,98586.06
2022-09-15T01:56:16.536Z,98582.13
2022-09-15T01:58:43.168Z,98579.25
2022-09-15T02:01:28.037Z,98587.59
2022-09-15T02:04:05.456Z,98585.94
2022-09-15T02:06:41.115Z,98583.59
2022-09-15T02:09:18.143Z,98587.00
2022-09-15T02:12:06.766Z,98591.72
2022-09-15T02:14:48.242Z,98589.50
2022-09-15T02:17:17.619Z,98585.25
2022-09-15T02:19:48.898Z,98582.41
2022-09-15T02:22:25.036Z,98585.13
2022-09-15T02:24:57.307Z,98605.56
2022-09-15T02:27:25.538Z,98605.34
2022-09-15T02:29:54.654Z,98601.81
2022-09-15T02:32:23.187Z,98603.47
2022-09-15T02:34:51.587Z,98609.09
2022-09-15T02:37:19.804Z,98618.72
2022-09-15T02:39:55.156Z,98612.28
2022-09-15T02:42:26.184Z,98614.56
2022-09-15T02:44:53.210Z,98609.56
2022-09-15T02:47:19.737Z,98616.28
2022-09-15T02:49:46.063Z,98611.66
2022-09-15T02:52:13.205Z,98620.81
2022-09-15T02:54:39.676Z,98609.75
2022-09-15T02:57:06.895Z,98616.44
2022-09-15T02:59:52.020Z,98620.81
2022-09-15T03:02:20.568Z,98604.31
2022-09-15T03:04:47.693Z,98607.25
2022-09-15T03:07:14.402Z,98612.31
2022-09-15T03:09:44.564Z,98609.78
2022-09-15T03:12:10.933Z,98615.41
2022-09-15T03:14:38.305Z,98626.69
2022-09-15T03:17:04.821Z,98624.03
2022-09-15T03:19:31.748Z,98619.41
2022-09-15T03:21:58.176Z,98614.56
2022-09-15T03:24:24.780Z,98614.81
2022-09-15T03:26:51.213Z,98615.63
2022-09-15T03:29:17.723Z,98615.81
2022-09-15T03:31:44.145Z,98621.44
2022-09-15T03:34:10.723Z,98615.03
2022-09-15T03:36:38.262Z,98611.88
2022-09-15T03:39:04.733Z,98615.63
2022-09-15T03:41:31.153Z,98614.38
2022-09-15T03:43:57.677Z,98610.38
2022-09-15T03:46:25.245Z,98600.56
2022-09-15T03:48:51.638Z,98610.38
2022-09-15T03:51:18.115Z,98609.31
2022-09-15T03:53:44.990Z,98612.25
2022-09-15T03:56:16.927Z,98608.91
2022-09-15T03:58:43.638Z,98615.16
2022-09-15T04:01:10.159Z,98612.88
2022-09-15T04:03:43.190Z,98607.03
2022-09-15T04:06:12.161Z,98619.97
2022-09-15T04:08:38.687Z,98607.47
2022-09-15T04:11:10.563Z,98607.69
2022-09-15T04:13:41.977Z,98616.44
2022-09-15T04:16:11.157Z,98610.56
2022-09-15T04:18:37.723Z,98622.88
2022-09-15T04:21:06.758Z,98611.44
2022-09-15T04:23:33.618Z,98621.00
2022-09-15T04:26:02.346Z,98607.28
2022-09-15T04:28:31.098Z,98618.94
2022-09-15T04:31:13.088Z,98614.38
2022-09-15T04:33:40.725Z,98616.50
2022-09-15T04:36:10.022Z,98612.75
2022-09-15T04:38:38.795Z,98617.34
2022-09-15T04:41:06.201Z,98614.00
2022-09-15T04:43:33.717Z,98622.97
2022-09-15T04:46:00.820Z,98626.69
2022-09-15T04:48:27.849Z,98619.25
2022-09-15T04:50:54.681Z,98636.13
2022-09-15T04:53:21.641Z,98628.41
2022-09-15T04:55:48.265Z,98629.88
2022-09-15T04:58:14.660Z,98622.53
2022-09-15T05:00:45.296Z,98618.38
2022-09-15T05:03:13.512Z,98623.38
2022-09-15T05:05:40.891Z,98627.97
2022-09-15T05:08:08.304Z,98623.38
2022-09-15T05:10:34.928Z,98629.16
2022-09-15T05:13:01.301Z,98630.19
2022-09-15T05:15:27.772Z,98624.31
2022-09-15T05:17:54.194Z,98631.00
2022-09-15T05:20:20.622Z,98631.22
2022-09-15T05:22:48.205Z,98636.81
2022-09-15T05:25:14.617Z,98634.56
2022-09-15T05:27:41.261Z,98635.75
2022-09-15T05:30:36.006Z,98643.50
2022-09-15T05:32:54.579Z,98645.13
2022-09-15T05:35:24.145Z,98648.47
2022-09-15T05:37:51.596Z,98640.69
2022-09-15T05:40:21.870Z,98643.84
2022-09-15T05:42:48.281Z,98651.97
2022-09-15T05:45:14.736Z,98659.44
2022-09-15T05:47:41.162Z,98655.97
2022-09-15T05:50:07.929Z,98663.63
2022-09-15T05:52:35.945Z,98653.84
2022-09-15T05:55:02.274Z,98661.13
2022-09-15T05:57:28.622Z,98661.31
2022-09-15T05:59:55.077Z,98653.56
2022-09-15T06:02:21.489Z,98658.13
2022-09-15T06:04:47.912Z,98666.28
2022-09-15T06:07:14.321Z,98659.78
2022-09-15T06:09:40.741Z,98663.66
2022-09-15T06:12:07.283Z,98668.41
2022-09-15T06:14:33.619Z,98670.03
2022-09-15T06:17:00.052Z,98673.06
2022-09-15T06:19:26.455Z,98681.13
2022-09-15T06:21:54.138Z,98681.81
2022-09-15T06:24:20.492Z,98683.56
2022-09-15T06:26:46.829Z,98695.13
2022-09-15T06:29:13.443Z,98697.03
2022-09-15T06:31:40.461Z,98692.78
2022-09-15T06:34:08.580Z,98696.16
2022-09-15T06:36:36.930Z,98691.09
2022-09-15T06:39:03.497Z,98683.38
2022-09-15T06:41:46.990Z,98694.84
2022-09-15T06:44:16.386Z,98702.06
2022-09-15T06:46:43.033Z,98704.91
2022-09-15T06:49:09.326Z,98706.22
2022-09-15T06:51:36.225Z,98705.28
2022-09-15T06:54:03.180Z,98716.13
2022-09-15T06:56:31.689Z,98721.63
2022-09-15T06:59:00.965Z,98730.81
2022-09-15T07:01:29.813Z,98733.53
2022-09-15T07:03:58.955Z,98742.88
2022-09-15T07:06:28.706Z,98748.47
2022-09-15T07:08:55.089Z,98749.28
2022-09-15T07:11:21.643Z,98750.75
2022-09-15T07:13:51.370Z,98760.38
2022-09-15T07:16:19.176Z,98770.44
2022-09-15T07:18:46.414Z,98768.63
2022-09-15T07:21:18.321Z,98772.84
2022-09-15T07:23:44.772Z,98765.16
2022-09-15T07:26:19.592Z,98765.50
2022-09-15T07:28:52.328Z,98756.84
2022-09-15T07:31:20.703Z,98761.47
2022-09-15T07:33:47.436Z,98760.28
2022-09-15T07:36:14.218Z,98771.78
2022-09-15T07:38:43.468Z,98772.84
2022-09-15T07:41:12.521Z,98781.38
2022-09-15T07:43:39.357Z,98786.69
2022-09-15T07:46:07.698Z,98787.75
2022-09-15T07:48:34.497Z,98793.19
2022-09-15T07:51:00.956Z,98793.91
2022-09-15T07:53:29.136Z,98793.25
2022-09-15T07:55:55.902Z,98797.16
2022-09-15T07:58:23.172Z,98792.72
2022-09-15T08:00:49.722Z,98796.59
2022-09-15T08:03:16.702Z,98802.41
2022-09-15T08:05:45.855Z,98804.19
2022-09-15T08:08:12.717Z,98810.81
2022-09-15T08:10:41.095Z,98808.13
2022-09-15T08:13:07.668Z,98810.19
2022-09-15T08:15:36.408Z,98814.31
2022-09-15T08:18:03.652Z,98810.06
2022-09-15T08:20:31.446Z,98815.09
2022-09-15T08:22:57.885Z,98814.47
2022-09-15T08:25:24.820Z,98827.38
2022-09-15T08:27:52.850Z,98821.13
2022-09-15T08:30:23.697Z,98814.69
2022-09-15T08:32:50.570Z,98820.31
2022-09-15T08:35:17.629Z,98823.03
2022-09-15T08:37:44.259Z,98828.69
2022-09-15T08:40:20.693Z,98824.50
2022-09-15T08:42:50.918Z,98824.81
2022-09-15T08:45:23.743Z,98821.88
2022-09-15T08:47:59.782Z,98834.31
2022-09-15T08:50:32.166Z,98835.97
2022-09-15T08:53:07.136Z,98838.94
2022-09-15T08:55:49.946Z,98841.94
2022-09-15T08:58:27.310Z,98830.06
2022-09-15T09:01:23.500Z,98821.97
2022-09-15T09:04:17.554Z,98822.31
2022-09-15T09:06:54.184Z,98831.97
2022-09-15T09:09:47.354Z,98839.16
2022-09-15T09:12:24.323Z,98844.13
2022-09-15T09:15:05.115Z,98848.19
2022-09-15T09:18:00.450Z,98849.50
2022-09-15T09:20:39.169Z,98840.16
2022-09-15T09:23:14.907Z,98840.50
2022-09-15T09:25:42.972Z,98839.03
2022-09-15T09:28:23.540Z,98836.47
2022-09-15T09:30:53.522Z,98836.06
2022-09-15T09:33:38.594Z,98838.25
2022-09-15T09:36:05.493Z,98847.88
2022-09-15T09:38:36.190Z,98844.31
2022-09-15T09:41:06.037Z,98846.81
2022-09-15T09:43:32.674Z,98838.19
2022-09-15T09:45:59.913Z,98844.81
2022-09-15T09:48:27.632Z,98839.50
2022-09-15T09:50:55.232Z,98846.47
2022-09-15T09:53:32.801Z,98840.09
2022-09-15T09:56:22.535Z,98834.69
2022-09-15T09:58:49.085Z,98829.63
2022-09-15T10:01:17.673Z,98835.06
2022-09-15T10:03:45.409Z,98829.03
2022-09-15T10:06:22.352Z,98834.59
2022-09-15T10:09:04.422Z,98829.50
2022-09-15T10:11:40.401Z,98830.34
2022-09-15T10:14:06.930Z,98832.69
2022-09-15T10:16:33.338Z,98829.97
2022-09-15T10:18:59.883Z,98830.16
2022-09-15T10:21:26.365Z,98831.03
2022-09-15T10:23:52.987Z,98829.84
2022-09-15T10:26:22.443Z,98826.75
2022-09-15T10:29:12.560Z,98823.47
2022-09-15T10:31:39.629Z,98824.97
2022-09-15T10:34:25.118Z,98827.94
2022-09-15T10:36:53.994Z,98837.28
2022-09-15T10:39:38.785Z,98828.56
2022-09-15T10:42:29.511Z,98828.47
2022-09-15T10:45:19.083Z,98831.25
2022-09-15T10:48:24.134Z,98833.00
2022-09-15T10:51:04.140Z,98829.84
2022-09-15T10:53:42.842Z,98820.13
2022-09-15T10:56:21.726Z,98817.13
2022-09-15T10:59:25.429Z,98828.09
2022-09-15T11:02:08.180Z,98829.81
2022-09-15T11:04:46.709Z,98822.50
2022-09-15T11:07:29.658Z,98829.78
2022-09-15T11:10:17.560Z,98823.72
2022-09-15T11:13:07.087Z,98819.44
2022-09-15T11:15:46.598Z,98818.94
2022-09-15T11:18:22.064Z,98813.59
2022-09-15T11:21:21.526Z,98813.00
2022-09-15T11:24:22.098Z,98812.03
2022-09-15T11:26:52.688Z,98822.97
2022-09-15T11:29:36.266Z,98813.56
2022-09-15T11:32:16.542Z,98814.25
2022-09-15T11:34:49.010Z,98811.06
2022-09-15T11:37:20.332Z,98809.81
2022-09-15T11:40:18.650Z,98809.84
2022-09-15T11:42:49.647Z,98804.28
2022-09-15T11:45:20.976Z,98810.50
2022-09-15T11:47:54.496Z,98798.59
2022-09-15T11:50:29.433Z,98810.84
2022-09-15T11:53:33.417Z,98800.94
2022-09-15T11:56:23.859Z,98805.47
2022-09-15T11:58:59.730Z,98815.47
2022-09-15T12:01:41.442Z,98815.25
2022-09-15T12:04:11.680Z,98820.41
2022-09-15T12:06:45.533Z,98811.91
2022-09-15T12:09:15.049Z,98809.16
2022-09-15T12:11:44.695Z,98816.16
2022-09-15T12:14:17.256Z,98805.97
2022-09-15T12:16:44.293Z,98804.88
2022-09-15T12:19:33.990Z,98807.19
2022-09-15T12:22:16.170Z,98797.84
2022-09-15T12:24:49.586Z,98799.63
2022-09-15T12:27:20.217Z,98799.22
2022-09-15T12:29:49.593Z,98796.84
2022-09-15T12:32:33.362Z,98799.78
2022-09-15T12:35:01.269Z,98805.59
2022-09-15T12:37:37.310Z,98807.06
2022-09-15T12:40:07.445Z,98809.69
2022-09-15T12:42:38.365Z,98809.34
2022-09-15T12:45:24.111Z,98806.66
2022-09-15T12:47:54.747Z,98809.03
2022-09-15T12:50:34.589Z,98803.03
2022-09-15T12:53:17.320Z,98802.50
2022-09-15T12:55:55.837Z,98811.47
2022-09-15T12:58:33.182Z,98808.63
2022-09-15T13:01:18.699Z,98811.97
2022-09-15T13:03:45.354Z,98813.88
2022-09-15T13:06:19.187Z,98816.94
2022-09-15T13:09:19.292Z,98810.19
2022-09-15T13:11:50.140Z,98812.41
2022-09-15T13:14:23.538Z,98804.75
2022-09-15T13:16:54.140Z,98808.34
2022-09-15T13:19:41.148Z,98805.94
2022-09-15T13:22:20.044Z,98812.91
2022-09-15T13:25:06.128Z,98813.03
2022-09-15T13:27:46.756Z,98827.34
2022-09-15T13:30:36.539Z,98820.13
2022-09-15T13:33:15.988Z,98815.44
2022-09-15T13:35:51.753Z,98817.03
2022-09-15T13:38:38.078Z,98813.25
2022-09-15T13:41:23.486Z,98814.66
2022-09-15T13:44:05.642Z,98825.78
2022-09-15T13:46:57.148Z,98822.53
2022-09-15T13:50:04.721Z,98822.59
2022-09-15T13:52:51.520Z,98820.78
2022-09-15T13:55:21.800Z,98814.56
2022-09-15T14:01:00.254Z,98804.63
2022-09-15T14:03:47.563Z,98806.97
2022-09-15T14:06:21.544Z,98796.25
2022-09-15T14:08:52.859Z,98802.69
2022-09-15T14:11:29.144Z,98808.78
2022-09-15T14:13:56.777Z,98807.72
2022-09-15T14:16:29.585Z,98803.34
2022-09-15T14:18:57.902Z,98811.09
2022-09-15T14:21:29.981Z,98808.03
2022-09-15T14:23:58.958Z,98806.97
2022-09-15T14:26:28.030Z,98809.63
2022-09-15T14:28:59.679Z,98814.63
2022-09-15T14:31:35.457Z,98824.84
2022-09-15T14:34:03.821Z,98817.91
2022-09-15T14:36:32.723Z,98813.47
2022-09-15T14:39:08.709Z,98823.38
2022-09-15T14:41:36.524Z,98821.63
2022-09-15T14:47:12.752Z,98818.19
2022-09-15T14:49:39.321Z,98821.06
2022-09-15T14:52:20.701Z,98829.53
2022-09-15T14:54:48.604Z,98828.94
2022-09-15T14:57:16.073Z,98827.28
2022-09-15T14:59:48.796Z,98816.41
2022-09-15T15:02:22.637Z,98815.38
2022-09-15T15:05:00.288Z,98812.72
2022-09-15T15:07:29.548Z,98810.66
2022-09-15T15:09:58.330Z,98811.25
2022-09-15T15:12:34.428Z,98814.66
2022-09-15T15:15:01.436Z,98808.56
2022-09-15T15:17:36.645Z,98802.09
2022-09-15T15:20:06.193Z,98795.78
2022-09-15T15:22:33.020Z,98804.34
2022-09-15T15:24:59.719Z,98801.06
2022-09-15T15:27:32.187Z,98802.88
2022-09-15T15:30:30.967Z,98799.84
2022-09-15T15:33:21.026Z,98800.56
2022-09-15T15:36:09.316Z,98798.56
2022-09-15T15:38:41.758Z,98810.94
2022-09-15T15:41:23.391Z,98807.78
2022-09-15T15:43:58.962Z,98800.22
2022-09-15T15:46:55.877Z,98798.03
2022-09-15T15:49:29.124Z,98798.09
2022-09-15T15:51:56.888Z,98801.78
2022-09-15T15:54:27.212Z,98806.25
2022-09-15T15:56:54.077Z,98803.53
2022-09-15T15:59:21.138Z,98805.44
2022-09-15T16:01:51.815Z,98801.72
2022-09-15T16:04:18.761Z,98809.03
2022-09-15T16:06:45.676Z,98806.31
2022-09-15T16:09:17.211Z,98812.09
2022-09-15T16:11:47.437Z,98808.16
2022-09-15T16:14:14.293Z,98813.53
2022-09-15T16:16:41.098Z,98801.38
2022-09-15T16:19:13.464Z,98807.72
2022-09-15T16:21:41.667Z,98813.97
2022-09-15T16:24:15.412Z,98814.81
2022-09-15T16:26:42.949Z,98820.25
2022-09-15T16:29:11.939Z,98816.94
2022-09-15T16:31:38.718Z,98819.88
2022-09-15T16:34:05.224Z,98820.75
2022-09-15T16:36:34.663Z,98821.66
2022-09-15T16:39:02.933Z,98827.09
2022-09-15T16:41:29.437Z,98825.50
2022-09-15T16:43:57.085Z,98823.91
2022-09-15T16:46:23.499Z,98824.72
2022-09-15T16:48:49.944Z,98820.13
2022-09-15T16:51:28.817Z,98811.59
2022-09-15T16:53:59.525Z,98815.34
2022-09-15T16:56:26.974Z,98824.03
2022-09-15T16:58:59.549Z,98828.88
2022-09-15T17:01:26.805Z,98819.06
2022-09-15T17:03:53.321Z,98825.97
2022-09-15T17:06:20.983Z,98828.16
2022-09-15T17:08:47.416Z,98829.63
2022-09-15T17:11:17.221Z,98829.25
2022-09-15T17:13:44.448Z,98828.81
2022-09-15T17:16:13.173Z,98835.28
2022-09-15T17:18:39.639Z,98834.72
2022-09-15T17:21:06.005Z,98828.44
2022-09-15T17:23:37.682Z,98825.63
2022-09-15T17:26:08.873Z,98835.25
2022-09-15T17:28:36.539Z,98829.03
2022-09-15T17:31:09.762Z,98838.06
2022-09-15T17:33:36.223Z,98834.31
2022-09-15T17:36:02.762Z,98839.97
2022-09-15T17:38:29.221Z,98840.22
2022-09-15T17:40:55.600Z,98847.13
2022-09-15T17:43:29.532Z,98849.66
2022-09-15T17:45:56.477Z,98845.13
2022-09-15T17:48:23.274Z,98845.97
2022-09-15T17:50:49.856Z,98846.41
2022-09-15T17:53:26.838Z,98832.44
2022-09-15T17:55:54.666Z,98828.50
2022-09-15T17:58:26.712Z,98834.53
2022-09-15T18:00:53.705Z,98831.63
2022-09-15T18:03:29.207Z,98828.09
2022-09-15T18:05:58.459Z,98834.00
2022-09-15T18:08:29.013Z,98841.88
2022-09-15T18:10:56.641Z,98835.47
2022-09-15T18:13:26.515Z,98838.59
2022-09-15T18:15:54.967Z,98838.41
2022-09-15T18:18:34.245Z,98842.63
2022-09-15T18:21:01.081Z,98842.41
2022-09-15T18:23:31.268Z,98841.16
2022-09-15T18:25:58.026Z,98845.31
2022-09-15T18:28:24.780Z,98848.44
2022-09-15T18:30:51.734Z,98856.75
2022-09-15T18:33:20.691Z,98851.56
2022-09-15T18:35:50.247Z,98852.59
2022-09-15T18:38:17.425Z,98849.66
2022-09-15T18:40:46.082Z,98844.88
2022-09-15T18:43:12.482Z,98859.25
2022-09-15T18:45:41.026Z,98854.88
2022-09-15T18:48:12.044Z,98856.56
2022-09-15T18:50:43.313Z,98844.69
2022-09-15T18:53:10.055Z,98862.19
2022-09-15T18:55:36.714Z,98864.25
2022-09-15T18:58:04.026Z,98869.88
2022-09-15T19:00:31.715Z,98870.31
2022-09-15T19:03:00.196Z,98876.75
2022-09-15T19:05:29.626Z,98879.47
2022-09-15T19:07:56.590Z,98875.72
2022-09-15T19:10:27.861Z,98876.75
2022-09-15T19:12:54.758Z,98884.88
2022-09-15T19:15:25.341Z,98879.88
2022-09-15T19:17:52.067Z,98886.53
2022-09-15T19:20:19.192Z,98887.38
2022-09-15T19:22:46.420Z,98888.22
2022-09-15T19:25:13.450Z,98890.09
2022-09-15T19:27:40.842Z,98891.75
2022-09-15T19:30:10.406Z,98891.75
2022-09-15T19:32:38.353Z,98895.50
2022-09-15T19:35:05.543Z,98890.91
2022-09-15T19:37:37.443Z,98898.59
2022-09-15T19:40:08.969Z,98893.59
2022-09-15T19:42:39.451Z,98903.63
2022-09-15T19:45:07.964Z,98897.78
2022-09-15T19:47:35.304Z,98896.50
2022-09-15T19:50:03.128Z,98897.38
2022-09-15T19:52:32.034Z,98900.91
2022-09-15T19:54:58.518Z,98899.88
2022-09-15T19:57:25.026Z,98905.72
2022-09-15T19:59:51.607Z,98907.38
2022-09-15T20:02:18.280Z,98902.78
2022-09-15T20:04:44.853Z,98905.72
2022-09-15T20:07:12.483Z,98909.47
2022-09-15T20:09:39.560Z,98906.97
2022-09-15T20:12:06.405Z,98916.97
2022-09-15T20:14:33.219Z,98916.13
2022-09-15T20:17:01.248Z,98913.63
2022-09-15T20:19:31.121Z,98919.03
2022-09-15T20:21:59.655Z,98917.56
2022-09-15T20:24:26.409Z,98919.84
2022-09-15T20:26:53.801Z,98923.81
2022-09-15T20:29:20.518Z,98916.97
2022-09-15T20:31:47.794Z,98919.03
2022-09-15T20:34:15.573Z,98916.72
2022-09-15T20:36:43.893Z,98914.63
2022-09-15T20:39:13.601Z,98910.69
2022-09-15T20:41:41.776Z,98915.28
2022-09-15T20:44:11.582Z,98914.03
2022-09-15T20:46:38.276Z,98908.19
2022-09-15T20:49:05.350Z,98917.56
2022-09-15T20:51:36.713Z,98921.94
2022-09-15T20:54:04.322Z,98919.66
2022-09-15T20:56:32.847Z,98919.44
2022-09-15T20:59:00.139Z,98920.28
2022-09-15T21:01:34.142Z,98929.03
2022-09-15T21:04:00.881Z,98934.22
2022-09-15T21:06:28.112Z,98943.00
2022-09-15T21:08:56.121Z,98937.81
2022-09-15T21:11:24.622Z,98940.94
2022-09-15T21:13:51.565Z,98945.72
2022-09-15T21:16:20.592Z,98947.78
2022-09-15T21:18:48.310Z,98944.25
2022-09-15T21:21:17.209Z,98953.66
2022-09-15T21:23:45.401Z,98956.97
2022-09-15T21:26:34.402Z,98954.06
2022-09-15T21:29:01.229Z,98949.91
2022-09-15T21:31:29.994Z,98950.31
2022-09-15T21:33:58.147Z,98950.53
2022-09-15T21:36:27.565Z,98954.28
2022-09-15T21:38:56.259Z,98955.31
2022-09-15T21:41:27.133Z,98962.81
2022-09-15T21:43:54.947Z,98968.22
2022-09-15T21:46:23.721Z,98970.31
2022-09-15T21:48:50.171Z,98974.06
2022-09-15T21:51:24.182Z,98981.16
2022-09-15T21:53:52.163Z,98981.34
2022-09-15T21:56:20.271Z,98976.75
2022-09-15T21:58:46.693Z,98972.72
2022-09-15T22:01:31.831Z,98961.16
2022-09-15T22:04:00.175Z,98944.28
2022-09-15T22:06:32.066Z,98950.88
2022-09-15T22:09:05.866Z,98935.84
2022-09-15T22:11:34.653Z,98937.03
2022-09-15T22:14:02.933Z,98928.69
2022-09-15T22:16:29.973Z,98915.38
2022-09-15T22:18:57.209Z,98920.53
2022-09-15T22:21:31.510Z,98913.06
2022-09-15T22:23:59.401Z,98910.75
2022-09-15T22:26:28.546Z,98916.78
2022-09-15T22:28:55.454Z,98909.91
2022-09-15T22:31:23.225Z,98909.09
2022-09-15T22:33:50.077Z,98919.91
2022-09-15T22:36:29.345Z,98908.69
2022-09-15T22:39:04.381Z,98908.88
2022-09-15T22:41:36.468Z,98916.78
2022-09-15T22:44:03.516Z,98920.72
2022-09-15T22:46:29.941Z,98914.03
2022-09-15T22:48:56.450Z,98914.72
2022-09-15T22:51:34.314Z,98921.13
2022-09-15T22:54:03.081Z,98921.16
2022-09-15T22:56:29.718Z,98905.38
2022-09-15T22:58:56.756Z,98910.34
2022-09-15T23:01:26.704Z,98914.09
2022-09-15T23:03:55.867Z,98912.47
2022-09-15T23:06:23.531Z,98910.19
2022-09-15T23:09:02.356Z,98930.78
2022-09-15T23:11:33.271Z,98935.16
2022-09-15T23:14:00.091Z,98932.84
2022-09-15T23:16:27.711Z,98944.66
2022-09-15T23:18:54.695Z,98956.94
2022-09-15T23:21:23.039Z,98947.94
2022-09-15T23:23:50.578Z,98952.78
2022-09-15T23:26:19.339Z,98952.31
2022-09-15T23:28:45.819Z,98949.75
2022-09-15T23:31:14.062Z,98957.28
2022-09-15T23:33:40.953Z,98939.59
2022-09-15T23:36:10.289Z,98939.78
2022-09-15T23:38:39.277Z,98937.25
2022-09-15T23:41:07.323Z,98935.38
2022-09-15T23:43:34.158Z,98930.38
2022-09-15T23:46:00.991Z,98933.81
2022-09-15T23:48:28.013Z,98936.50
2022-09-15T23:50:54.878Z,98931.94
2022-09-15T23:53:22.525Z,98936.72
2022-09-15T23:55:50.292Z,98932.13
2022-09-15T23:58:17.458Z,98927.75
